Time;durP1;ratioP1;P1;durP2;ratioP2;P2;SDS_P1;SDS_P2;PMS_P1;PMS_P2;Temp;Humidity;BMP_temperature;BMP_pressure;BME280_temperature;BME280_humidity;BME280_pressure;Samples;Min_cycle;Max_cycle;Signal;HPM_P1;HPM_P2
2022/03/17 00:01:05;;;;;;;10.53;7.27;;;;;;;4.31;85.85;97737.81;6244743;23;20278;-83
2022/03/17 00:03:32;;;;;;;9.33;7.37;;;;;;;4.78;86.41;97820.22;6244853;23;20173;-84
2022/03/17 00:05:59;;;;;;;11.27;7.60;;;;;;;4.54;85.53;97758.06;6220075;23;20250;-81
2022/03/17 00:08:26;;;;;;;9.80;7.33;;;;;;;4.68;85.48;97792.13;6242307;23;20234;-82
2022/03/17 00:10:53;;;;;;;9.40;6.70;;;;;;;4.79;85.02;97803.97;6242463;23;20158;-82
2022/03/17 00:13:21;;;;;;;8.53;6.07;;;;;;;4.68;85.29;97776.72;6240704;23;20511;-79
2022/03/17 00:15:50;;;;;;;7.07;5.73;;;;;;;4.72;85.07;97791.22;6243740;23;20187;-82
2022/03/17 00:18:17;;;;;;;7.50;5.97;;;;;;;4.97;85.09;97820.88;6212048;23;20236;-78
2022/03/17 00:20:44;;;;;;;9.03;5.87;;;;;;;4.73;84.94;97780.97;6211416;23;20244;-79
2022/03/17 00:23:12;;;;;;;7.57;5.90;;;;;;;4.71;84.71;97800.66;6212829;23;20171;-81
2022/03/17 00:25:39;;;;;;;7.37;5.93;;;;;;;4.42;85.33;97771.03;6185768;23;20223;-80
2022/03/17 00:28:07;;;;;;;7.70;6.13;;;;;;;4.76;85.35;97821.97;6213142;23;20613;-83
2022/03/17 00:30:35;;;;;;;6.20;5.60;;;;;;;4.78;85.59;97817.66;6210558;23;20630;-82
2022/03/17 00:33:02;;;;;;;6.73;5.33;;;;;;;4.75;85.55;97825.41;6212697;23;20587;-81
2022/03/17 00:35:35;;;;;;;6.37;4.97;;;;;;;4.43;84.95;97776.13;6237245;23;20208;-89
2022/03/17 00:38:08;;;;;;;6.30;4.57;;;;;;;4.85;84.75;97829.56;6240204;23;20162;-87
2022/03/17 00:40:37;;;;;;;7.60;5.50;;;;;;;4.76;85.10;97796.31;6214516;23;20634;-86
2022/03/17 00:43:06;;;;;;;6.23;5.53;;;;;;;4.97;84.38;97815.75;6188173;23;20172;-86
2022/03/17 00:45:33;;;;;;;6.83;4.97;;;;;;;4.92;84.19;97838.88;6214784;23;20196;-79
2022/03/17 00:48:01;;;;;;;7.97;6.23;;;;;;;4.79;84.17;97815.94;6237691;23;20583;-83
2022/03/17 00:50:29;;;;;;;7.70;6.63;;;;;;;4.96;83.42;97832.03;6189235;23;20646;-82
2022/03/17 00:52:56;;;;;;;8.97;6.57;;;;;;;4.72;85.05;97830.56;6213395;23;20273;-81
2022/03/17 00:55:23;;;;;;;9.60;6.83;;;;;;;4.16;85.33;97748.22;6212993;23;20687;-79
2022/03/17 00:57:51;;;;;;;8.13;5.90;;;;;;;4.50;86.06;97808.56;6214380;23;20634;-83
2022/03/17 01:00:18;;;;;;;9.23;6.77;;;;;;;4.49;86.02;97826.53;6212016;23;20193;-79
2022/03/17 01:02:50;;;;;;;9.73;7.27;;;;;;;4.24;87.04;97797.69;6239314;23;20603;-79
2022/03/17 01:05:19;;;;;;;7.90;6.57;;;;;;;4.33;87.31;97830.94;6212562;23;20170;-79
2022/03/17 01:07:47;;;;;;;9.20;7.40;;;;;;;4.41;87.68;97839.41;6241065;23;20165;-81
2022/03/17 01:10:18;;;;;;;7.17;5.57;;;;;;;4.34;86.43;97824.94;6238866;23;20622;-78
2022/03/17 01:12:47;;;;;;;6.60;5.40;;;;;;;3.84;86.32;97743.38;6242499;23;20865;-83
2022/03/17 01:15:17;;;;;;;10.60;5.93;;;;;;;4.24;86.96;97784.88;6235781;23;20181;-88
2022/03/17 01:17:45;;;;;;;8.07;5.73;;;;;;;4.37;85.33;97796.69;6268804;22;20166;-84
2022/03/17 01:20:12;;;;;;;6.03;4.70;;;;;;;4.53;83.04;97803.41;6270919;22;20200;-87
2022/03/17 01:22:40;;;;;;;5.97;4.90;;;;;;;4.19;83.13;97745.63;6256062;22;20882;-82
2022/03/17 01:25:07;;;;;;;7.00;5.33;;;;;;;4.50;81.91;97798.31;6221236;23;20649;-82
2022/03/17 01:27:35;;;;;;;5.20;4.40;;;;;;;4.42;78.45;97782.13;6247849;23;20170;-77
2022/03/17 01:30:04;;;;;;;7.80;5.80;;;;;;;4.76;81.00;97837.34;6191666;23;20222;-81
2022/03/17 01:32:32;;;;;;;10.80;7.70;;;;;;;4.72;84.18;97840.81;6242453;22;20641;-78
2022/03/17 01:35:00;;;;;;;12.43;7.60;;;;;;;4.80;84.75;97849.28;6238611;23;20210;-82
2022/03/17 01:37:28;;;;;;;13.13;8.10;;;;;;;4.72;84.86;97848.50;6242395;23;20157;-82
2022/03/17 01:39:55;;;;;;;10.47;7.70;;;;;;;4.50;85.06;97808.56;6241847;23;20197;-79
2022/03/17 01:42:22;;;;;;;10.60;7.53;;;;;;;4.74;85.72;97840.81;6243227;23;20197;-77
2022/03/17 01:44:50;;;;;;;12.53;7.57;;;;;;;4.61;85.82;97834.97;6242738;23;20180;-79
2022/03/17 01:47:31;;;;;;;10.20;7.47;;;;;;;4.65;85.41;97822.94;6243830;23;20213;-80
2022/03/17 01:50:05;;;;;;;10.20;7.43;;;;;;;4.76;85.12;97827.09;6244430;23;20169;-80
2022/03/17 01:52:32;;;;;;;11.77;7.63;;;;;;;4.59;84.83;97798.22;6243927;23;20170;-81
2022/03/17 01:55:00;;;;;;;9.60;6.33;;;;;;;4.76;84.58;97819.41;6244489;23;20166;-83
2022/03/17 01:57:29;;;;;;;8.67;6.50;;;;;;;4.82;84.60;97824.47;6217463;23;20593;-78
2022/03/17 01:59:56;;;;;;;9.00;6.17;;;;;;;4.69;84.37;97798.97;6193160;23;20198;-79
2022/03/17 02:02:24;;;;;;;7.03;5.90;;;;;;;4.83;84.80;97843.28;6244021;22;20194;-79
2022/03/17 02:04:52;;;;;;;7.53;6.17;;;;;;;4.89;84.26;97846.63;6239952;23;20207;-79
2022/03/17 02:07:20;;;;;;;9.77;6.87;;;;;;;4.42;83.33;97773.59;6241212;23;20163;-86
2022/03/17 02:09:48;;;;;;;12.73;8.17;;;;;;;4.48;84.34;97810.28;6239621;23;20613;-81
2022/03/17 02:15:08;;;;;;;10.67;7.80;;;;;;;4.88;83.22;97891.09;6240232;23;20651;-83
2022/03/17 02:17:43;;;;;;;9.43;6.63;;;;;;;4.87;82.12;97891.13;6213728;23;20189;-85
2022/03/17 02:20:13;;;;;;;7.40;6.13;;;;;;;4.83;81.00;97856.97;6242032;23;20166;-85
2022/03/17 02:22:49;;;;;;;8.33;6.00;;;;;;;4.83;80.74;97862.09;6213366;23;20194;-87
2022/03/17 02:25:33;;;;;;;8.70;6.43;;;;;;;5.03;80.85;97897.81;6240801;23;20566;-83
2022/03/17 02:28:06;;;;;;;6.93;5.57;;;;;;;4.95;80.29;97889.34;6214719;23;20160;-81
2022/03/17 02:30:37;;;;;;;9.37;5.30;;;;;;;4.81;80.25;97871.53;6164814;23;20518;-87
2022/03/17 02:33:11;;;;;;;8.70;6.47;;;;;;;5.03;79.98;97902.09;6215754;23;20217;-83
2022/03/17 02:35:39;;;;;;;8.13;6.27;;;;;;;4.97;78.56;97903.84;6239321;23;20237;-81
2022/03/17 02:38:07;;;;;;;10.67;7.60;;;;;;;4.60;78.46;97840.94;6214003;23;20178;-84
2022/03/17 02:40:36;;;;;;;9.23;6.80;;;;;;;4.60;80.65;97888.81;6211784;23;20174;-81
2022/03/17 02:43:07;;;;;;;12.00;8.07;;;;;;;4.40;82.04;97880.44;6187906;23;20226;-79
2022/03/17 02:45:35;;;;;;;11.33;8.47;;;;;;;4.44;80.96;97905.19;6212514;23;20272;-79
2022/03/17 02:48:03;;;;;;;9.53;7.33;;;;;;;4.04;79.43;97815.78;6212208;23;20171;-84
2022/03/17 02:50:31;;;;;;;17.20;10.83;;;;;;;3.85;81.86;97833.88;6213921;23;20215;-84
2022/03/17 02:53:05;;;;;;;10.33;7.13;;;;;;;4.19;80.84;97896.84;6238641;23;20161;-82
2022/03/17 02:55:37;;;;;;;12.63;8.33;;;;;;;4.23;80.02;97895.09;6213803;23;20163;-85
2022/03/17 02:58:06;;;;;;;20.57;10.90;;;;;;;4.13;76.09;97873.81;6185948;23;20174;-79
2022/03/17 03:00:34;;;;;;;19.90;12.07;;;;;;;4.57;74.56;97910.22;6240195;23;20249;-86
2022/03/17 03:03:03;;;;;;;21.53;13.70;;;;;;;4.36;76.02;97902.72;6240279;23;20228;-79
2022/03/17 03:05:30;;;;;;;33.50;17.80;;;;;;;4.29;73.25;97900.19;6212219;23;20183;-79
2022/03/17 03:07:58;;;;;;;33.67;19.70;;;;;;;4.49;71.24;97914.53;6239082;23;20161;-85
2022/03/17 03:10:25;;;;;;;40.80;21.10;;;;;;;4.45;69.72;97897.50;6240378;22;20198;-84
2022/03/17 03:12:53;;;;;;;41.10;21.03;;;;;;;4.61;69.31;97919.59;6243654;23;20170;-81
2022/03/17 03:15:20;;;;;;;40.47;22.07;;;;;;;4.57;69.54;97917.94;6242873;22;20177;-79
2022/03/17 03:17:47;;;;;;;38.97;20.60;;;;;;;4.49;70.19;97914.53;6243650;22;20166;-82
2022/03/17 03:20:15;;;;;;;42.07;22.67;;;;;;;4.50;70.40;97928.22;6242372;22;20224;-79
2022/03/17 03:22:42;;;;;;;35.13;17.33;;;;;;;4.62;70.14;97964.03;6239149;22;20193;-85
2022/03/17 03:25:09;;;;;;;41.97;22.03;;;;;;;4.50;70.07;97928.22;6213270;23;20526;-84
2022/03/17 03:27:40;;;;;;;38.00;22.37;;;;;;;4.65;69.62;97951.19;6236470;23;20277;-82
2022/03/17 03:30:12;;;;;;;42.27;22.60;;;;;;;4.35;70.35;97911.25;6238802;23;20241;-82
2022/03/17 03:32:42;;;;;;;43.87;22.93;;;;;;;4.46;70.44;97929.97;6236493;23;20598;-86
2022/03/17 03:37:55;;;;;;;33.60;17.10;;;;;;;4.40;69.15;97930.03;6243299;22;20173;-80
2022/03/17 03:40:22;;;;;;;39.37;21.33;;;;;;;4.57;70.03;97965.81;6268999;22;20170;-82
2022/03/17 03:42:49;;;;;;;37.97;21.23;;;;;;;4.31;69.85;97917.25;6243874;22;20196;-86
2022/03/17 03:45:17;;;;;;;36.20;19.63;;;;;;;4.37;69.51;97927.47;6216983;22;20232;-85
2022/03/17 03:47:44;;;;;;;36.20;20.03;;;;;;;4.46;69.50;97945.38;6271242;22;20604;-85
2022/03/17 03:50:11;;;;;;;40.30;21.37;;;;;;;4.62;69.49;97956.34;6244022;22;20858;-82
2022/03/17 03:52:38;;;;;;;38.13;21.10;;;;;;;4.44;70.76;97931.69;6243587;22;20162;-85
2022/03/17 03:55:06;;;;;;;38.00;20.63;;;;;;;4.30;70.47;97927.53;6243295;22;20179;-84
2022/03/17 03:57:33;;;;;;;39.43;21.93;;;;;;;4.20;71.11;97900.25;6268843;22;20625;-81
2022/03/17 04:00:00;;;;;;;39.97;21.47;;;;;;;4.32;70.67;97947.19;6244019;22;20263;-85
2022/03/17 04:02:37;;;;;;;40.13;21.07;;;;;;;4.54;71.07;97973.50;6244548;22;20248;-87
2022/03/17 04:05:06;;;;;;;34.43;19.40;;;;;;;4.35;69.83;97962.53;6243051;22;20575;-81
2022/03/17 04:07:33;;;;;;;37.43;22.43;;;;;;;4.28;70.84;97954.91;6215717;22;20166;-80
2022/03/17 04:10:01;;;;;;;38.10;20.73;;;;;;;4.44;70.43;97993.25;6270862;22;20173;-84
2022/03/17 04:12:29;;;;;;;33.27;20.17;;;;;;;3.72;70.26;97873.22;6272599;22;20161;-84
2022/03/17 04:14:57;;;;;;;32.43;18.57;;;;;;;4.40;69.57;98000.97;6272050;22;20161;-87
2022/03/17 04:17:25;;;;;;;35.13;19.30;;;;;;;4.42;70.37;98005.22;6274048;22;20267;-83
2022/03/17 04:19:53;;;;;;;38.10;21.57;;;;;;;4.33;69.88;97989.88;6275069;22;20158;-81
2022/03/17 04:22:21;;;;;;;35.57;19.63;;;;;;;4.36;70.03;98010.38;6224261;22;20209;-82
2022/03/17 04:24:48;;;;;;;35.93;21.90;;;;;;;4.17;70.72;97989.97;6246442;22;20673;-86
2022/03/17 04:27:15;;;;;;;40.47;20.67;;;;;;;3.84;70.12;97926.94;6245466;22;20697;-87
2022/03/17 04:29:43;;;;;;;39.30;22.70;;;;;;;3.90;69.61;97943.16;6244005;22;20196;-79
2022/03/17 04:32:10;;;;;;;34.67;20.27;;;;;;;4.26;69.16;98007.88;6244876;22;20169;-82
2022/03/17 04:34:37;;;;;;;29.70;17.33;;;;;;;4.21;69.42;98015.59;6244582;22;20207;-77
2022/03/17 04:37:05;;;;;;;35.17;20.47;;;;;;;4.09;69.75;98013.97;6270706;22;20160;-82
2022/03/17 04:39:32;;;;;;;37.20;20.57;;;;;;;4.02;71.15;97991.75;6272467;22;20637;-79
2022/03/17 04:41:59;;;;;;;41.80;23.37;;;;;;;4.11;71.00;98008.81;6243676;22;20243;-85
2022/03/17 04:44:27;;;;;;;36.33;19.97;;;;;;;4.22;70.61;98042.09;6196341;22;20176;-83
2022/03/17 04:46:54;;;;;;;36.33;20.67;;;;;;;4.17;70.80;98031.00;6244584;22;20176;-82
2022/03/17 04:49:21;;;;;;;35.60;18.50;;;;;;;3.94;70.30;98002.91;6273016;22;20167;-90
2022/03/17 04:51:49;;;;;;;37.87;20.97;;;;;;;4.21;70.46;98028.41;6273813;22;20190;-83
2022/03/17 04:54:20;;;;;;;38.70;21.63;;;;;;;4.16;71.06;98030.16;6273448;22;20628;-86
2022/03/17 04:56:48;;;;;;;40.40;20.63;;;;;;;4.33;70.61;98056.53;6221692;22;20526;-84
2022/03/17 04:59:21;;;;;;;39.73;21.47;;;;;;;4.36;70.70;98051.41;6272747;22;20169;-88
2022/03/17 05:01:50;;;;;;;38.33;20.53;;;;;;;4.17;70.58;98013.91;6239922;22;20511;-83
2022/03/17 05:04:17;;;;;;;36.40;21.67;;;;;;;4.36;70.17;98030.91;6269940;22;20165;-85
2022/03/17 05:06:45;;;;;;;31.07;18.00;;;;;;;4.04;70.05;97990.03;6244846;22;20192;-80
2022/03/17 05:09:12;;;;;;;34.90;19.10;;;;;;;4.44;70.30;98048.78;6245198;22;20173;-84
2022/03/17 05:11:40;;;;;;;34.50;17.40;;;;;;;3.83;70.15;97966.25;6219774;22;20168;-83
2022/03/17 05:14:07;;;;;;;31.63;15.93;;;;;;;4.30;71.13;98064.25;6219994;22;20188;-79
2022/03/17 05:16:36;;;;;;;30.40;15.40;;;;;;;3.65;70.85;97961.19;6271189;22;20185;-85
2022/03/17 05:19:04;;;;;;;30.27;15.97;;;;;;;4.20;70.35;98062.59;6195993;22;20169;-87
2022/03/17 05:21:34;;;;;;;24.40;13.67;;;;;;;4.22;70.55;98072.84;6269821;22;20170;-84
2022/03/17 05:24:01;;;;;;;35.83;16.80;;;;;;;4.54;70.22;98107.72;6244875;22;20205;-84
2022/03/17 05:26:29;;;;;;;33.33;18.30;;;;;;;4.53;70.66;98070.13;6243494;22;20188;-83
2022/03/17 05:28:57;;;;;;;29.70;17.67;;;;;;;4.51;69.67;98082.13;6271985;22;20609;-83
2022/03/17 05:31:24;;;;;;;30.43;16.63;;;;;;;4.49;70.21;98122.28;6218472;22;20169;-84
2022/03/17 05:33:51;;;;;;;33.03;17.17;;;;;;;4.18;70.48;98100.22;6270658;22;20164;-84
2022/03/17 05:36:19;;;;;;;32.00;16.70;;;;;;;4.03;70.66;98093.44;6218748;22;20179;-84
2022/03/17 05:38:46;;;;;;;33.23;16.60;;;;;;;4.02;71.57;98101.97;6269139;22;20161;-84
2022/03/17 05:41:13;;;;;;;30.10;16.47;;;;;;;3.69;70.92;98050.00;6244388;22;20161;-89
2022/03/17 05:43:41;;;;;;;30.47;16.43;;;;;;;3.92;71.02;98100.28;6192042;22;20677;-83
2022/03/17 05:46:08;;;;;;;30.33;15.30;;;;;;;4.10;70.81;98140.41;6218850;22;20203;-86
2022/03/17 05:48:35;;;;;;;31.03;16.37;;;;;;;4.29;70.84;98147.16;6270599;22;20170;-80
2022/03/17 05:51:02;;;;;;;29.73;16.37;;;;;;;4.14;70.47;98134.41;6243738;22;20215;-86
2022/03/17 05:53:33;;;;;;;30.97;16.70;;;;;;;4.29;70.88;98159.09;6271724;22;20281;-83
2022/03/17 05:56:00;;;;;;;32.27;16.27;;;;;;;3.89;69.83;98087.50;6191480;22;20166;-84
2022/03/17 05:58:27;;;;;;;28.17;14.90;;;;;;;3.92;69.86;98099.41;6270967;22;20165;-86
2022/03/17 06:00:55;;;;;;;26.57;15.00;;;;;;;3.94;69.97;98113.09;6191965;22;20179;-83
2022/03/17 06:03:22;;;;;;;31.70;15.90;;;;;;;3.94;70.38;98095.16;6243804;22;20205;-86
2022/03/17 06:05:49;;;;;;;29.00;16.13;;;;;;;3.92;69.64;98068.69;6192899;22;20617;-80
2022/03/17 06:08:17;;;;;;;26.03;14.77;;;;;;;4.42;69.55;98138.56;6243711;22;20518;-88
2022/03/17 06:10:45;;;;;;;24.97;12.93;;;;;;;4.53;68.79;98157.34;6219914;22;20179;-84
2022/03/17 06:13:12;;;;;;;31.97;16.07;;;;;;;4.32;68.74;98103.56;6169569;22;20257;-85
2022/03/17 06:15:40;;;;;;;27.70;15.20;;;;;;;4.25;67.83;98068.53;6226732;22;20177;-80
2022/03/17 06:18:07;;;;;;;28.40;15.50;;;;;;;4.41;67.84;98095.81;6271498;22;20621;-87
2022/03/17 06:20:38;;;;;;;25.00;14.20;;;;;;;4.55;67.84;98106.88;6258784;22;20161;-90
2022/03/17 06:23:07;;;;;;;25.53;14.97;;;;;;;4.77;67.68;98169.19;6273184;22;20185;-90
2022/03/17 06:25:36;;;;;;;24.17;13.90;;;;;;;4.94;67.34;98169.97;6239761;22;20176;-85
2022/03/17 06:28:10;;;;;;;28.87;15.17;;;;;;;5.17;67.46;98169.81;6277595;22;20222;-80
2022/03/17 06:30:37;;;;;;;24.03;13.83;;;;;;;4.89;66.24;98130.63;6223301;22;20180;-85
2022/03/17 06:33:06;;;;;;;22.00;12.87;;;;;;;4.94;66.82;98181.09;6274612;22;20240;-84
2022/03/17 06:35:34;;;;;;;21.07;12.47;;;;;;;4.68;66.04;98135.88;6270009;22;20684;-84
2022/03/17 06:38:04;;;;;;;21.03;12.10;;;;;;;4.43;67.16;98086.41;6271180;22;20178;-85
2022/03/17 06:40:35;;;;;;;21.07;12.63;;;;;;;5.08;66.92;98165.59;6217892;22;20168;-82
2022/03/17 06:43:04;;;;;;;23.90;13.77;;;;;;;5.37;65.48;98198.78;6243238;22;20202;-85
2022/03/17 06:45:32;;;;;;;18.40;10.87;;;;;;;4.68;65.04;98105.94;6244071;22;20165;-83
2022/03/17 06:48:00;;;;;;;19.87;10.97;;;;;;;5.40;64.59;98196.19;6192019;22;20171;-86
2022/03/17 06:50:27;;;;;;;18.27;11.37;;;;;;;5.37;64.08;98149.97;6245299;22;20162;-88
2022/03/17 06:52:55;;;;;;;18.10;10.60;;;;;;;5.40;63.28;98147.41;6217468;22;20249;-83
2022/03/17 06:55:22;;;;;;;19.77;10.53;;;;;;;5.98;63.16;98187.16;6194774;22;20175;-87
2022/03/17 06:57:50;;;;;;;16.93;10.17;;;;;;;6.09;61.50;98185.34;6270580;22;20173;-82
2022/03/17 07:00:19;;;;;;;16.87;10.73;;;;;;;5.87;62.17;98178.72;6243557;22;20174;-83
2022/03/17 07:02:47;;;;;;;16.20;9.90;;;;;;;5.59;61.59;98154.06;6270776;22;20198;-82
2022/03/17 07:05:15;;;;;;;17.17;9.90;;;;;;;5.49;61.65;98121.63;6269469;22;20195;-86
2022/03/17 07:07:44;;;;;;;21.90;12.10;;;;;;;6.09;61.29;98169.06;6244185;22;20171;-89
2022/03/17 07:10:12;;;;;;;28.80;12.23;;;;;;;6.34;60.78;98166.22;6193391;22;20186;-88
2022/03/17 07:12:41;;;;;;;19.70;10.70;;;;;;;6.58;60.07;98153.06;6219287;22;20255;-84
2022/03/17 07:15:10;;;;;;;19.40;11.67;;;;;;;6.40;60.07;98143.00;6242723;22;20601;-83
2022/03/17 07:17:41;;;;;;;14.33;8.63;;;;;;;6.27;58.78;98162.00;6193636;22;20172;-83
2022/03/17 07:20:12;;;;;;;14.00;9.07;;;;;;;6.17;59.90;98160.41;6243791;22;20167;-84
2022/03/17 07:22:42;;;;;;;14.60;9.57;;;;;;;6.69;58.32;98182.97;6242389;22;20557;-84
2022/03/17 07:25:10;;;;;;;12.70;8.50;;;;;;;6.09;56.89;98118.50;6243022;22;20172;-83
2022/03/17 07:27:45;;;;;;;13.27;8.80;;;;;;;6.57;58.70;98192.53;6242783;22;20164;-83
2022/03/17 07:30:18;;;;;;;17.13;8.83;;;;;;;6.85;56.14;98212.81;6195180;22;20168;-86
2022/03/17 07:32:52;;;;;;;19.93;11.47;;;;;;;7.08;57.22;98203.06;6243106;22;20167;-81
2022/03/17 07:35:20;;;;;;;21.60;12.47;;;;;;;7.04;56.22;98202.25;6243929;22;20284;-84
2022/03/17 07:37:47;;;;;;;19.10;12.63;;;;;;;6.63;56.12;98111.00;6272162;22;20471;-87
2022/03/17 07:40:17;;;;;;;20.43;12.07;;;;;;;7.30;56.48;98165.81;6271247;22;20186;-85
2022/03/17 07:42:45;;;;;;;22.77;12.30;;;;;;;7.80;55.82;98212.28;6220216;22;20275;-86
2022/03/17 07:45:18;;;;;;;19.97;11.27;;;;;;;7.85;56.17;98209.66;6246152;22;20188;-87
2022/03/17 07:48:07;;;;;;;20.00;11.33;;;;;;;7.71;55.63;98165.16;6250904;22;20203;-85
2022/03/17 07:50:40;;;;;;;17.07;12.30;;;;;;;7.93;56.53;98216.34;6221201;22;20172;-86
2022/03/17 07:53:12;;;;;;;22.73;12.67;;;;;;;8.02;55.42;98215.34;6244667;22;20168;-83
2022/03/17 07:55:42;;;;;;;18.20;12.27;;;;;;;8.10;54.51;98218.66;6247617;22;20194;-84
2022/03/17 07:58:11;;;;;;;21.47;12.63;;;;;;;7.98;55.33;98224.88;6246641;22;20180;-85
2022/03/17 08:00:41;;;;;;;18.93;12.50;;;;;;;7.59;54.54;98192.00;6247179;22;20173;-86
2022/03/17 08:03:10;;;;;;;20.03;13.17;;;;;;;7.74;55.76;98207.22;6273248;22;20180;-81
2022/03/17 08:05:37;;;;;;;25.43;13.20;;;;;;;7.70;56.04;98184.97;6277591;22;20163;-81
2022/03/17 08:08:04;;;;;;;24.70;13.47;;;;;;;8.00;53.98;98236.03;6274741;22;20172;-81
2022/03/17 08:10:31;;;;;;;22.97;13.83;;;;;;;7.75;55.77;98197.78;6247221;22;20177;-86
2022/03/17 08:13:02;;;;;;;21.33;12.97;;;;;;;7.49;54.61;98169.81;6274665;22;20171;-82
2022/03/17 08:15:29;;;;;;;21.77;12.50;;;;;;;7.68;56.38;98217.66;6243518;22;20252;-82
2022/03/17 08:17:56;;;;;;;19.17;12.10;;;;;;;7.37;56.71;98200.94;6220795;22;20203;-82
2022/03/17 08:20:25;;;;;;;23.20;11.73;;;;;;;7.23;57.77;98179.69;6219678;22;20816;-83
2022/03/17 08:22:52;;;;;;;19.63;11.50;;;;;;;7.66;56.75;98240.03;6273884;22;20160;-80
2022/03/17 08:25:19;;;;;;;19.50;12.70;;;;;;;7.83;56.78;98250.06;6223162;22;20169;-82
2022/03/17 08:27:46;;;;;;;17.20;11.00;;;;;;;7.80;55.89;98244.94;6275441;22;20171;-85
2022/03/17 08:30:13;;;;;;;27.73;12.63;;;;;;;7.55;57.54;98207.53;6246666;22;20171;-87
2022/03/17 08:32:41;;;;;;;22.87;13.00;;;;;;;7.53;56.51;98188.66;6276797;22;20211;-83
2022/03/17 08:35:10;;;;;;;20.33;10.77;;;;;;;7.68;56.79;98253.75;6273219;22;20223;-82
2022/03/17 08:37:42;;;;;;;19.33;12.40;;;;;;;7.60;56.20;98211.75;6244448;22;20160;-85
2022/03/17 08:40:11;;;;;;;19.93;11.90;;;;;;;7.77;55.71;98253.56;6245488;22;20187;-82
2022/03/17 08:42:40;;;;;;;19.20;11.57;;;;;;;7.69;55.33;98244.25;6246185;22;20203;-81
2022/03/17 08:50:42;;;;;;;27.13;17.10;;;;;;;7.69;56.33;98245.13;6249073;22;20179;-84
2022/03/17 08:53:10;;;;;;;25.77;13.77;;;;;;;7.71;58.67;98265.72;6220323;22;20161;-84
2022/03/17 08:55:37;;;;;;;22.40;14.43;;;;;;;7.13;59.40;98176.38;6217119;22;20180;-82
2022/03/17 08:58:06;;;;;;;24.00;14.53;;;;;;;7.80;59.05;98248.38;6244032;22;20164;-84
2022/03/17 09:00:35;;;;;;;21.07;14.23;;;;;;;7.80;58.51;98273.31;6218011;22;20620;-86
2022/03/17 09:03:06;;;;;;;19.43;13.47;;;;;;;7.22;57.00;98165.09;6241454;22;20199;-85
2022/03/17 09:05:36;;;;;;;21.30;12.53;;;;;;;7.76;56.25;98262.22;6270388;22;20168;-87
2022/03/17 09:08:06;;;;;;;28.83;12.83;;;;;;;7.73;56.03;98248.53;6242501;22;20248;-82
2022/03/17 09:10:35;;;;;;;30.87;14.30;;;;;;;7.66;56.53;98242.59;6218015;22;20656;-83
2022/03/17 09:13:07;;;;;;;21.33;13.37;;;;;;;7.81;56.12;98256.97;6270327;22;20168;-82
2022/03/17 09:15:40;;;;;;;22.30;14.23;;;;;;;7.65;56.42;98228.00;6270438;22;20168;-82
2022/03/17 09:18:11;;;;;;;20.60;13.63;;;;;;;7.52;57.25;98226.50;6218654;22;20267;-83
2022/03/17 09:20:41;;;;;;;22.50;13.00;;;;;;;7.37;59.40;98283.41;6268741;22;20161;-82
2022/03/17 09:23:08;;;;;;;19.30;13.10;;;;;;;6.94;60.10;98248.75;6270419;22;20573;-84
2022/03/17 09:25:38;;;;;;;22.30;13.43;;;;;;;6.88;61.74;98274.56;6241703;22;20259;-84
2022/03/17 09:28:05;;;;;;;19.40;12.23;;;;;;;6.59;62.15;98273.13;6192854;22;20255;-87
2022/03/17 09:30:34;;;;;;;17.73;11.53;;;;;;;6.21;60.92;98275.25;6241795;22;20163;-82
2022/03/17 09:33:05;;;;;;;18.83;11.20;;;;;;;6.20;61.07;98281.25;6241429;22;20214;-87
2022/03/17 09:35:34;;;;;;;18.27;11.27;;;;;;;6.27;60.40;98288.03;6214451;22;1306398;-85
2022/03/17 09:38:06;;;;;;;16.50;11.17;;;;;;;5.99;61.62;98236.88;6242487;22;20684;-87
2022/03/17 09:40:35;;;;;;;18.93;10.87;;;;;;;6.29;60.03;98283.75;6209716;22;20619;-87
2022/03/17 09:43:18;;;;;;;12.70;9.57;;;;;;;6.30;59.67;98290.59;6216466;22;20200;-83
2022/03/17 09:45:50;;;;;;;16.93;11.17;;;;;;;6.05;59.45;98218.81;6271146;22;20162;-87
2022/03/17 09:48:25;;;;;;;14.90;9.67;;;;;;;6.24;58.69;98239.22;6244099;22;20201;-82
2022/03/17 09:50:58;;;;;;;16.90;10.57;;;;;;;6.29;59.43;98223.72;6217387;22;20643;-83
2022/03/17 09:53:31;;;;;;;23.87;14.87;;;;;;;6.25;59.53;98230.63;6219987;22;20974;-83
2022/03/17 09:55:58;;;;;;;15.77;11.57;;;;;;;6.85;60.22;98287.47;6276358;22;20638;-86
2022/03/17 09:58:26;;;;;;;17.30;10.67;;;;;;;6.77;59.90;98240.34;6244596;22;20159;-86
2022/03/17 10:00:53;;;;;;;17.97;11.87;;;;;;;7.22;59.96;98281.88;6270220;22;20165;-81
2022/03/17 10:03:25;;;;;;;15.87;10.83;;;;;;;7.42;58.36;98299.63;6218463;22;20184;-86
2022/03/17 10:05:54;;;;;;;18.87;11.47;;;;;;;7.09;57.32;98235.69;6193931;22;20195;-89
2022/03/17 10:08:24;;;;;;;18.53;11.00;;;;;;;7.61;57.67;98292.50;6241819;22;20616;-81
2022/03/17 10:10:52;;;;;;;16.43;11.57;;;;;;;7.75;56.71;98291.44;6244491;22;20238;-83
2022/03/17 10:13:23;;;;;;;12.50;8.50;;;;;;;7.94;54.60;98308.34;6243065;22;20189;-85
2022/03/17 10:16:13;;;;;;;11.60;9.13;;;;;;;7.54;54.15;98301.22;6221583;22;20176;-85
2022/03/17 10:18:40;;;;;;;18.37;10.80;;;;;;;7.08;55.16;98233.97;6221603;22;20242;-85
2022/03/17 10:21:13;;;;;;;15.67;10.83;;;;;;;7.61;55.00;98308.81;6196127;22;20566;-83
2022/03/17 10:23:49;;;;;;;16.70;11.53;;;;;;;7.49;55.15;98264.31;6271015;22;20223;-81
2022/03/17 10:26:44;;;;;;;14.60;9.30;;;;;;;7.50;53.54;98287.47;6242756;22;20290;-85
2022/03/17 10:29:20;;;;;;;10.57;7.90;;;;;;;7.23;54.44;98296.44;6246219;22;20171;-89
2022/03/17 10:31:50;;;;;;;14.07;9.30;;;;;;;7.21;53.83;98302.50;6245256;22;20201;-82
2022/03/17 10:34:19;;;;;;;13.33;9.10;;;;;;;6.98;55.34;98268.44;6243217;22;20279;-90
2022/03/17 10:36:47;;;;;;;19.47;10.20;;;;;;;7.00;54.93;98251.25;6219829;22;20168;-83
2022/03/17 10:39:15;;;;;;;19.73;11.27;;;;;;;7.62;55.12;98315.69;6242765;22;20473;-80
2022/03/17 10:41:45;;;;;;;14.47;10.13;;;;;;;7.33;53.67;98232.78;6245546;22;20226;-85
2022/03/17 10:44:20;;;;;;;16.67;9.70;;;;;;;7.40;52.76;98226.66;6220351;22;20222;-90
2022/03/17 10:47:01;;;;;;;13.20;9.63;;;;;;;7.83;53.63;98296.50;6266807;22;20168;-84
2022/03/17 10:49:30;;;;;;;13.97;9.70;;;;;;;7.84;53.17;98311.06;6255834;22;20259;-84
2022/03/17 10:51:58;;;;;;;12.27;8.63;;;;;;;7.52;52.20;98254.84;6256152;22;20172;-88
2022/03/17 10:54:25;;;;;;;16.43;10.10;;;;;;;7.66;53.75;98270.97;6245954;22;20264;-84
2022/03/17 10:57:05;;;;;;;14.73;10.23;;;;;;;7.98;52.63;98289.38;6269747;22;20175;-87
2022/03/17 10:59:46;;;;;;;14.20;10.00;;;;;;;8.01;52.27;98245.47;6244249;22;20167;-85
2022/03/17 11:02:26;;;;;;;16.47;10.10;;;;;;;7.93;52.60;98218.09;6270005;22;20165;-83
2022/03/17 11:04:55;;;;;;;15.27;10.43;;;;;;;8.44;53.62;98262.81;6243248;22;20210;-85
2022/03/17 11:07:23;;;;;;;12.73;9.37;;;;;;;8.34;53.09;98274.19;6244614;22;20172;-88
2022/03/17 11:09:50;;;;;;;14.43;9.93;;;;;;;8.34;53.19;98300.00;6269389;22;20164;-83
2022/03/17 11:12:17;;;;;;;14.43;9.87;;;;;;;8.10;52.86;98253.03;6270506;22;20161;-85
2022/03/17 11:14:55;;;;;;;19.57;10.77;;;;;;;8.42;52.96;98292.97;6269098;22;20224;-86
2022/03/17 11:17:44;;;;;;;22.43;12.03;;;;;;;8.45;53.46;98301.50;6243475;22;20172;-87
2022/03/17 11:20:17;;;;;;;14.53;9.83;;;;;;;8.31;52.85;98281.97;6242776;22;20168;-83
2022/03/17 11:23:02;;;;;;;17.53;10.90;;;;;;;8.22;53.62;98291.53;6241066;22;20168;-85
2022/03/17 11:25:29;;;;;;;13.57;8.90;;;;;;;8.11;54.18;98265.09;6243606;22;20200;-82
2022/03/17 11:27:59;;;;;;;23.80;11.33;;;;;;;8.15;54.56;98271.03;6216603;22;20173;-84
2022/03/17 11:30:43;;;;;;;23.40;11.80;;;;;;;8.12;54.40;98269.34;6219090;22;20234;-84
2022/03/17 11:33:43;;;;;;;17.13;10.80;;;;;;;7.97;54.54;98274.78;6193992;22;20169;-81
2022/03/17 11:36:10;;;;;;;19.67;11.50;;;;;;;8.25;54.31;98293.25;6216460;22;20169;-85
2022/03/17 11:38:39;;;;;;;28.50;13.03;;;;;;;8.14;54.03;98275.34;6244333;22;20168;-86
2022/03/17 11:41:08;;;;;;;18.70;11.37;;;;;;;8.36;53.47;98300.81;6269321;22;20203;-86
2022/03/17 11:43:42;;;;;;;20.13;12.20;;;;;;;8.26;53.45;98302.72;6244866;22;20165;-88
2022/03/17 11:46:16;;;;;;;15.93;10.07;;;;;;;8.27;54.03;98295.81;6273273;22;20663;-80
2022/03/17 11:48:48;;;;;;;15.60;11.00;;;;;;;8.27;53.15;98296.66;6217629;22;20168;-82
2022/03/17 11:51:15;;;;;;;13.47;9.57;;;;;;;7.88;52.68;98245.69;6243817;22;20685;-81